sensor_id;sensor_type;location;lat;lon;timestamp;pressure;altitude;pressure_sealevel;temperature;humidity
64368;BME280;50692;53.314;-6.300;2023-03-22T00:01:14;98296.84;;;12.70;91.21
64368;BME280;50692;53.314;-6.300;2023-03-22T00:03:59;98329.34;;;12.72;91.30
64368;BME280;50692;53.314;-6.300;2023-03-22T00:06:43;98297.81;;;12.61;92.59
64368;BME280;50692;53.314;-6.300;2023-03-22T00:09:27;98277.72;;;12.58;93.81
64368;BME280;50692;53.314;-6.300;2023-03-22T00:12:11;98292.41;;;12.53;95.32
64368;BME280;50692;53.314;-6.300;2023-03-22T00:14:55;98288.41;;;12.48;95.54
64368;BME280;50692;53.314;-6.300;2023-03-22T00:17:39;98289.91;;;12.51;95.30
64368;BME280;50692;53.314;-6.300;2023-03-22T00:20:25;98279.69;;;12.38;95.86
64368;BME280;50692;53.314;-6.300;2023-03-22T00:23:13;98315.66;;;12.41;94.09
64368;BME280;50692;53.314;-6.300;2023-03-22T00:25:56;98296.81;;;12.62;92.52
64368;BME280;50692;53.314;-6.300;2023-03-22T00:28:41;98294.00;;;12.63;91.91
64368;BME280;50692;53.314;-6.300;2023-03-22T00:31:25;98308.69;;;12.58;91.02
64368;BME280;50692;53.314;-6.300;2023-03-22T00:34:09;98321.09;;;12.75;90.43
64368;BME280;50692;53.314;-6.300;2023-03-22T00:36:54;98306.34;;;12.72;90.07
64368;BME280;50692;53.314;-6.300;2023-03-22T00:39:38;98325.94;;;12.80;89.39
64368;BME280;50692;53.314;-6.300;2023-03-22T00:42:22;98313.00;;;12.77;88.81
64368;BME280;50692;53.314;-6.300;2023-03-22T00:45:09;98319.34;;;12.84;87.78
64368;BME280;50692;53.314;-6.300;2023-03-22T00:47:53;98340.03;;;12.80;86.62
64368;BME280;50692;53.314;-6.300;2023-03-22T00:50:38;98349.41;;;12.75;84.52
64368;BME280;50692;53.314;-6.300;2023-03-22T00:53:23;98349.25;;;12.76;83.45
64368;BME280;50692;53.314;-6.300;2023-03-22T00:56:07;98336.84;;;12.77;83.75
64368;BME280;50692;53.314;-6.300;2023-03-22T00:58:52;98362.75;;;12.65;83.90
64368;BME280;50692;53.314;-6.300;2023-03-22T01:01:36;98364.19;;;12.59;83.04
64368;BME280;50692;53.314;-6.300;2023-03-22T01:04:20;98383.25;;;12.45;82.28
64368;BME280;50692;53.314;-6.300;2023-03-22T01:07:08;98425.78;;;12.43;81.10
64368;BME280;50692;53.314;-6.300;2023-03-22T01:09:52;98428.19;;;12.37;80.56
64368;BME280;50692;53.314;-6.300;2023-03-22T01:12:36;98447.97;;;12.15;76.25
64368;BME280;50692;53.314;-6.300;2023-03-22T01:15:20;98462.25;;;11.94;74.01
64368;BME280;50692;53.314;-6.300;2023-03-22T01:18:06;98460.06;;;11.90;71.73
64368;BME280;50692;53.314;-6.300;2023-03-22T01:20:51;98465.78;;;11.75;70.50
64368;BME280;50692;53.314;-6.300;2023-03-22T01:23:36;98457.75;;;11.58;68.40
64368;BME280;50692;53.314;-6.300;2023-03-22T01:26:20;98466.13;;;11.43;66.60
64368;BME280;50692;53.314;-6.300;2023-03-22T01:29:04;98477.81;;;11.31;65.51
64368;BME280;50692;53.314;-6.300;2023-03-22T01:31:48;98476.69;;;11.24;65.83
64368;BME280;50692;53.314;-6.300;2023-03-22T01:34:32;98476.41;;;11.27;65.95
64368;BME280;50692;53.314;-6.300;2023-03-22T01:37:17;98490.91;;;11.13;67.16
64368;BME280;50692;53.314;-6.300;2023-03-22T01:40:02;98492.97;;;11.10;67.92
64368;BME280;50692;53.314;-6.300;2023-03-22T01:42:47;98503.41;;;11.01;66.82
64368;BME280;50692;53.314;-6.300;2023-03-22T01:45:46;98505.50;;;10.98;67.07
64368;BME280;50692;53.314;-6.300;2023-03-22T01:48:32;98515.78;;;10.91;67.81
64368;BME280;50692;53.314;-6.300;2023-03-22T01:51:19;98527.56;;;10.77;67.87
64368;BME280;50692;53.314;-6.300;2023-03-22T01:54:19;98522.03;;;10.80;67.46
64368;BME280;50692;53.314;-6.300;2023-03-22T01:57:05;98546.47;;;10.73;66.35
64368;BME280;50692;53.314;-6.300;2023-03-22T01:59:49;98526.56;;;10.59;63.82
64368;BME280;50692;53.314;-6.300;2023-03-22T02:02:33;98541.56;;;10.59;63.86
64368;BME280;50692;53.314;-6.300;2023-03-22T02:05:18;98564.06;;;10.53;64.12
64368;BME280;50692;53.314;-6.300;2023-03-22T02:08:04;98575.97;;;10.38;61.93
64368;BME280;50692;53.314;-6.300;2023-03-22T02:10:50;98567.72;;;10.31;61.24
64368;BME280;50692;53.314;-6.300;2023-03-22T02:40:11;98611.22;;;9.74;61.80
64368;BME280;50692;53.314;-6.300;2023-03-22T02:43:27;98618.94;;;9.66;62.04
64368;BME280;50692;53.314;-6.300;2023-03-22T02:46:23;98610.22;;;9.65;61.69
64368;BME280;50692;53.314;-6.300;2023-03-22T02:49:21;98607.63;;;9.54;61.78
64368;BME280;50692;53.314;-6.300;2023-03-22T02:52:16;98636.88;;;9.51;61.56
64368;BME280;50692;53.314;-6.300;2023-03-22T02:55:12;98658.22;;;9.48;62.49
64368;BME280;50692;53.314;-6.300;2023-03-22T02:58:05;98660.06;;;9.36;62.94
64368;BME280;50692;53.314;-6.300;2023-03-22T03:00:53;98658.28;;;9.25;63.05
64368;BME280;50692;53.314;-6.300;2023-03-22T03:03:40;98666.88;;;9.27;63.71
64368;BME280;50692;53.314;-6.300;2023-03-22T03:06:27;98660.22;;;9.12;64.54
64368;BME280;50692;53.314;-6.300;2023-03-22T03:09:15;98660.22;;;9.12;64.89
64368;BME280;50692;53.314;-6.300;2023-03-22T03:12:12;98654.81;;;9.02;64.86
64368;BME280;50692;53.314;-6.300;2023-03-22T03:14:56;98684.06;;;9.10;64.81
64368;BME280;50692;53.314;-6.300;2023-03-22T03:23:46;98705.88;;;8.90;63.68
64368;BME280;50692;53.314;-6.300;2023-03-22T03:26:53;98703.22;;;8.90;63.25
64368;BME280;50692;53.314;-6.300;2023-03-22T03:29:49;98711.38;;;8.76;63.27
64368;BME280;50692;53.314;-6.300;2023-03-22T03:32:45;98712.78;;;8.69;62.95
64368;BME280;50692;53.314;-6.300;2023-03-22T03:35:40;98707.91;;;8.75;62.98
64368;BME280;50692;53.314;-6.300;2023-03-22T03:38:25;98715.66;;;8.77;62.98
64368;BME280;50692;53.314;-6.300;2023-03-22T03:41:13;98715.44;;;8.69;63.13
64368;BME280;50692;53.314;-6.300;2023-03-22T03:43:59;98728.72;;;8.67;63.29
64368;BME280;50692;53.314;-6.300;2023-03-22T03:46:45;98729.06;;;8.62;63.31
64368;BME280;50692;53.314;-6.300;2023-03-22T03:49:29;98747.50;;;8.62;63.05
64368;BME280;50692;53.314;-6.300;2023-03-22T03:52:13;98752.06;;;8.60;63.23
64368;BME280;50692;53.314;-6.300;2023-03-22T03:54:57;98761.75;;;8.60;63.43
64368;BME280;50692;53.314;-6.300;2023-03-22T03:57:41;98764.09;;;8.52;63.42
64368;BME280;50692;53.314;-6.300;2023-03-22T04:00:25;98771.06;;;8.53;63.77
64368;BME280;50692;53.314;-6.300;2023-03-22T04:03:10;98773.53;;;8.43;63.58
64368;BME280;50692;53.314;-6.300;2023-03-22T04:05:54;98776.28;;;8.41;63.65
64368;BME280;50692;53.314;-6.300;2023-03-22T04:08:38;98780.28;;;8.34;63.60
64368;BME280;50692;53.314;-6.300;2023-03-22T04:11:24;98789.81;;;8.48;62.85
64368;BME280;50692;53.314;-6.300;2023-03-22T04:14:08;98799.06;;;8.54;62.94
64368;BME280;50692;53.314;-6.300;2023-03-22T04:16:52;98803.28;;;8.56;63.26
64368;BME280;50692;53.314;-6.300;2023-03-22T04:19:37;98793.66;;;8.55;63.28
64368;BME280;50692;53.314;-6.300;2023-03-22T04:22:22;98793.28;;;8.49;63.49
64368;BME280;50692;53.314;-6.300;2023-03-22T04:25:09;98805.97;;;8.44;63.61
64368;BME280;50692;53.314;-6.300;2023-03-22T04:27:58;98796.78;;;8.49;63.03
64368;BME280;50692;53.314;-6.300;2023-03-22T04:30:43;98807.34;;;8.36;62.87
64368;BME280;50692;53.314;-6.300;2023-03-22T04:33:28;98816.03;;;8.26;63.16
64368;BME280;50692;53.314;-6.300;2023-03-22T04:36:15;98821.91;;;8.29;63.35
64368;BME280;50692;53.314;-6.300;2023-03-22T04:39:03;98824.66;;;8.28;64.02
64368;BME280;50692;53.314;-6.300;2023-03-22T04:41:48;98825.72;;;8.25;64.14
64368;BME280;50692;53.314;-6.300;2023-03-22T04:44:33;98831.44;;;8.19;64.35
64368;BME280;50692;53.314;-6.300;2023-03-22T04:47:17;98837.31;;;8.23;64.43
64368;BME280;50692;53.314;-6.300;2023-03-22T04:50:01;98833.34;;;8.17;64.99
64368;BME280;50692;53.314;-6.300;2023-03-22T04:52:45;98843.88;;;8.17;65.16
64368;BME280;50692;53.314;-6.300;2023-03-22T04:55:31;98850.81;;;8.18;65.61
64368;BME280;50692;53.314;-6.300;2023-03-22T04:58:16;98841.13;;;8.18;66.05
64368;BME280;50692;53.314;-6.300;2023-03-22T05:01:05;98852.22;;;8.11;66.77
64368;BME280;50692;53.314;-6.300;2023-03-22T05:03:50;98857.69;;;8.08;67.35
64368;BME280;50692;53.314;-6.300;2023-03-22T05:06:34;98852.31;;;8.09;67.24
64368;BME280;50692;53.314;-6.300;2023-03-22T05:09:18;98856.13;;;8.05;67.75
64368;BME280;50692;53.314;-6.300;2023-03-22T05:12:02;98862.22;;;8.06;68.00
64368;BME280;50692;53.314;-6.300;2023-03-22T05:14:46;98865.59;;;8.08;68.12
64368;BME280;50692;53.314;-6.300;2023-03-22T05:17:30;98875.97;;;8.09;68.44
64368;BME280;50692;53.314;-6.300;2023-03-22T05:20:14;98881.25;;;8.09;68.81
64368;BME280;50692;53.314;-6.300;2023-03-22T05:22:57;98891.78;;;8.09;68.82
64368;BME280;50692;53.314;-6.300;2023-03-22T05:25:46;98892.50;;;8.11;68.87
64368;BME280;50692;53.314;-6.300;2023-03-22T05:28:30;98881.50;;;8.06;69.18
64368;BME280;50692;53.314;-6.300;2023-03-22T05:31:14;98883.25;;;8.06;69.23
64368;BME280;50692;53.314;-6.300;2023-03-22T05:34:00;98893.56;;;8.09;69.22
64368;BME280;50692;53.314;-6.300;2023-03-22T05:36:44;98885.59;;;8.10;69.21
64368;BME280;50692;53.314;-6.300;2023-03-22T05:39:29;98887.88;;;8.15;69.11
64368;BME280;50692;53.314;-6.300;2023-03-22T05:42:13;98883.88;;;8.09;69.00
64368;BME280;50692;53.314;-6.300;2023-03-22T05:44:57;98909.25;;;8.10;68.85
64368;BME280;50692;53.314;-6.300;2023-03-22T05:47:41;98879.91;;;8.04;68.33
64368;BME280;50692;53.314;-6.300;2023-03-22T05:50:25;98882.00;;;8.11;67.73
64368;BME280;50692;53.314;-6.300;2023-03-22T05:53:10;98891.13;;;8.18;67.34
64368;BME280;50692;53.314;-6.300;2023-03-22T05:55:54;98902.59;;;8.17;66.94
64368;BME280;50692;53.314;-6.300;2023-03-22T05:58:43;98890.38;;;8.16;66.98
64368;BME280;50692;53.314;-6.300;2023-03-22T06:01:27;98879.63;;;8.20;66.14
64368;BME280;50692;53.314;-6.300;2023-03-22T06:04:11;98886.69;;;8.19;65.94
64368;BME280;50692;53.314;-6.300;2023-03-22T06:06:55;98893.97;;;8.15;65.66
64368;BME280;50692;53.314;-6.300;2023-03-22T06:09:39;98886.91;;;8.16;65.65
64368;BME280;50692;53.314;-6.300;2023-03-22T06:12:24;98896.94;;;8.11;65.10
64368;BME280;50692;53.314;-6.300;2023-03-22T06:15:09;98887.66;;;8.18;64.38
64368;BME280;50692;53.314;-6.300;2023-03-22T06:17:54;98886.06;;;8.15;64.10
64368;BME280;50692;53.314;-6.300;2023-03-22T06:20:38;98883.88;;;8.09;63.87
64368;BME280;50692;53.314;-6.300;2023-03-22T06:23:23;98898.69;;;8.23;64.07
64368;BME280;50692;53.314;-6.300;2023-03-22T06:26:06;98896.88;;;8.24;64.15
64368;BME280;50692;53.314;-6.300;2023-03-22T06:28:53;98885.84;;;8.18;64.31
64368;BME280;50692;53.314;-6.300;2023-03-22T06:31:37;98885.72;;;8.20;64.74
64368;BME280;50692;53.314;-6.300;2023-03-22T06:34:21;98897.34;;;8.17;64.93
64368;BME280;50692;53.314;-6.300;2023-03-22T06:37:05;98886.50;;;8.09;65.19
64368;BME280;50692;53.314;-6.300;2023-03-22T06:39:49;98878.13;;;8.04;64.98
64368;BME280;50692;53.314;-6.300;2023-03-22T06:42:34;98887.66;;;8.18;64.70
64368;BME280;50692;53.314;-6.300;2023-03-22T06:45:20;98896.16;;;8.22;64.61
64368;BME280;50692;53.314;-6.300;2023-03-22T06:48:04;98904.28;;;8.18;64.81
64368;BME280;50692;53.314;-6.300;2023-03-22T06:50:48;98889.44;;;8.17;64.93
64368;BME280;50692;53.314;-6.300;2023-03-22T06:53:33;98903.72;;;8.26;64.92
64368;BME280;50692;53.314;-6.300;2023-03-22T06:56:17;98890.06;;;8.21;65.39
64368;BME280;50692;53.314;-6.300;2023-03-22T06:59:01;98887.31;;;8.23;65.50
64368;BME280;50692;53.314;-6.300;2023-03-22T07:01:46;98878.59;;;8.22;65.72
64368;BME280;50692;53.314;-6.300;2023-03-22T07:04:31;98885.72;;;8.20;65.85
64368;BME280;50692;53.314;-6.300;2023-03-22T07:07:15;98877.81;;;8.33;65.88
64368;BME280;50692;53.314;-6.300;2023-03-22T07:09:59;98873.50;;;8.32;65.97
64368;BME280;50692;53.314;-6.300;2023-03-22T07:12:43;98882.66;;;8.39;65.76
64368;BME280;50692;53.314;-6.300;2023-03-22T07:15:29;98893.47;;;8.47;65.34
64368;BME280;50692;53.314;-6.300;2023-03-22T07:18:13;98839.91;;;8.35;65.20
64368;BME280;50692;53.314;-6.300;2023-03-22T07:20:57;98875.06;;;8.58;65.26
64368;BME280;50692;53.314;-6.300;2023-03-22T07:23:41;98865.78;;;8.65;64.64
64368;BME280;50692;53.314;-6.300;2023-03-22T07:26:25;98855.03;;;8.80;63.42
64368;BME280;50692;53.314;-6.300;2023-03-22T07:29:10;98865.38;;;8.94;63.15
64368;BME280;50692;53.314;-6.300;2023-03-22T07:31:54;98865.06;;;9.10;62.38
64368;BME280;50692;53.314;-6.300;2023-03-22T07:34:37;98868.66;;;9.20;61.72
64368;BME280;50692;53.314;-6.300;2023-03-22T07:37:21;98853.44;;;9.24;60.61
64368;BME280;50692;53.314;-6.300;2023-03-22T07:40:06;98872.19;;;9.43;60.46
64368;BME280;50692;53.314;-6.300;2023-03-22T07:42:50;98865.34;;;9.52;59.91
64368;BME280;50692;53.314;-6.300;2023-03-22T07:45:34;98868.09;;;9.73;60.05
64368;BME280;50692;53.314;-6.300;2023-03-22T07:48:20;98879.13;;;9.78;59.12
64368;BME280;50692;53.314;-6.300;2023-03-22T07:51:04;98866.63;;;9.91;59.34
64368;BME280;50692;53.314;-6.300;2023-03-22T07:53:48;98878.25;;;10.11;59.53
64368;BME280;50692;53.314;-6.300;2023-03-22T07:56:32;98869.13;;;10.15;59.19
64368;BME280;50692;53.314;-6.300;2023-03-22T07:59:16;98873.56;;;10.26;59.29
64368;BME280;50692;53.314;-6.300;2023-03-22T08:02:01;98879.06;;;10.34;59.28
64368;BME280;50692;53.314;-6.300;2023-03-22T08:04:44;98877.25;;;10.35;58.90
64368;BME280;50692;53.314;-6.300;2023-03-22T08:07:29;98866.56;;;10.36;59.32
64368;BME280;50692;53.314;-6.300;2023-03-22T08:10:02;98870.84;;;10.48;58.67
64368;BME280;50692;53.314;-6.300;2023-03-22T08:12:46;98869.28;;;10.57;58.27
64368;BME280;50692;53.314;-6.300;2023-03-22T08:15:30;98889.78;;;10.65;58.14
64368;BME280;50692;53.314;-6.300;2023-03-22T08:18:14;98880.13;;;10.75;58.28
64368;BME280;50692;53.314;-6.300;2023-03-22T08:20:59;98863.09;;;10.89;58.04
64368;BME280;50692;53.314;-6.300;2023-03-22T08:23:43;98860.53;;;10.98;57.49
64368;BME280;50692;53.314;-6.300;2023-03-22T08:26:27;98869.50;;;11.07;56.89
64368;BME280;50692;53.314;-6.300;2023-03-22T08:29:11;98861.94;;;11.23;56.76
64368;BME280;50692;53.314;-6.300;2023-03-22T08:31:55;98863.75;;;11.23;55.99
64368;BME280;50692;53.314;-6.300;2023-03-22T08:34:44;98852.72;;;11.18;55.81
64368;BME280;50692;53.314;-6.300;2023-03-22T08:37:28;98850.78;;;11.20;56.30
64368;BME280;50692;53.314;-6.300;2023-03-22T08:40:13;98852.69;;;11.39;56.14
64368;BME280;50692;53.314;-6.300;2023-03-22T08:42:58;98838.53;;;11.49;56.49
64368;BME280;50692;53.314;-6.300;2023-03-22T08:45:42;98841.56;;;11.75;56.09
64368;BME280;50692;53.314;-6.300;2023-03-22T08:48:27;98841.38;;;11.98;54.85
64368;BME280;50692;53.314;-6.300;2023-03-22T08:51:16;98847.81;;;12.05;54.50
64368;BME280;50692;53.314;-6.300;2023-03-22T08:54:01;98833.22;;;12.30;54.65
64368;BME280;50692;53.314;-6.300;2023-03-22T08:56:46;98825.53;;;12.66;53.48
64368;BME280;50692;53.314;-6.300;2023-03-22T08:59:31;98827.66;;;12.72;52.31
64368;BME280;50692;53.314;-6.300;2023-03-22T09:02:15;98845.06;;;12.84;51.49
64368;BME280;50692;53.314;-6.300;2023-03-22T09:05:00;98824.72;;;12.75;51.21
64368;BME280;50692;53.314;-6.300;2023-03-22T09:07:44;98821.34;;;12.73;50.80
64368;BME280;50692;53.314;-6.300;2023-03-22T09:10:28;98812.03;;;12.79;50.59
64368;BME280;50692;53.314;-6.300;2023-03-22T09:13:12;98820.66;;;12.81;51.11
64368;BME280;50692;53.314;-6.300;2023-03-22T09:15:57;98807.50;;;12.99;50.54
64368;BME280;50692;53.314;-6.300;2023-03-22T09:18:41;98806.97;;;12.85;51.10
64368;BME280;50692;53.314;-6.300;2023-03-22T09:21:26;98804.25;;;13.14;50.82
64368;BME280;50692;53.314;-6.300;2023-03-22T09:23:59;98804.78;;;13.28;50.23
64368;BME280;50692;53.314;-6.300;2023-03-22T09:26:45;98811.41;;;13.04;50.11
64368;BME280;50692;53.314;-6.300;2023-03-22T09:29:29;98808.63;;;12.96;50.94
64368;BME280;50692;53.314;-6.300;2023-03-22T09:32:13;98787.63;;;12.56;51.42
64368;BME280;50692;53.314;-6.300;2023-03-22T09:34:57;98781.75;;;12.52;51.88
64368;BME280;50692;53.314;-6.300;2023-03-22T09:37:41;98785.81;;;12.27;52.71
64368;BME280;50692;53.314;-6.300;2023-03-22T09:40:29;98771.16;;;12.42;52.85
64368;BME280;50692;53.314;-6.300;2023-03-22T09:43:14;98789.56;;;12.34;52.82
64368;BME280;50692;53.314;-6.300;2023-03-22T09:45:59;98786.78;;;12.26;53.10
64368;BME280;50692;53.314;-6.300;2023-03-22T09:48:46;98806.28;;;12.35;53.16
64368;BME280;50692;53.314;-6.300;2023-03-22T09:51:51;98800.44;;;12.31;53.18
64368;BME280;50692;53.314;-6.300;2023-03-22T09:54:40;98799.31;;;12.24;53.51
64368;BME280;50692;53.314;-6.300;2023-03-22T09:57:34;98801.00;;;12.25;53.95
64368;BME280;50692;53.314;-6.300;2023-03-22T10:06:20;98797.50;;;12.05;54.46
64368;BME280;50692;53.314;-6.300;2023-03-22T10:12:16;98787.75;;;12.15;56.37
64368;BME280;50692;53.314;-6.300;2023-03-22T10:15:15;98797.81;;;12.41;56.17
64368;BME280;50692;53.314;-6.300;2023-03-22T10:21:30;98763.19;;;13.56;52.77
64368;BME280;50692;53.314;-6.300;2023-03-22T10:24:11;98772.53;;;14.05;52.07
64368;BME280;50692;53.314;-6.300;2023-03-22T10:26:57;98772.59;;;14.49;50.67
64368;BME280;50692;53.314;-6.300;2023-03-22T10:29:51;98775.13;;;14.69;49.24
64368;BME280;50692;53.314;-6.300;2023-03-22T10:35:42;98799.44;;;15.00;49.02
64368;BME280;50692;53.314;-6.300;2023-03-22T10:38:28;98749.66;;;15.18;48.63
64368;BME280;50692;53.314;-6.300;2023-03-22T10:41:16;98759.66;;;15.16;47.65
64368;BME280;50692;53.314;-6.300;2023-03-22T10:44:02;98768.72;;;15.40;47.81
64368;BME280;50692;53.314;-6.300;2023-03-22T10:46:50;98772.91;;;15.42;47.74
64368;BME280;50692;53.314;-6.300;2023-03-22T10:49:38;98758.34;;;15.54;47.64
64368;BME280;50692;53.314;-6.300;2023-03-22T10:55:15;98728.31;;;15.87;47.25
64368;BME280;50692;53.314;-6.300;2023-03-22T10:58:16;98762.78;;;15.80;47.04
64368;BME280;50692;53.314;-6.300;2023-03-22T11:01:07;98751.19;;;15.63;46.69
64368;BME280;50692;53.314;-6.300;2023-03-22T11:03:59;98748.44;;;15.73;47.63
64368;BME280;50692;53.314;-6.300;2023-03-22T11:06:51;98751.13;;;15.97;46.68
64368;BME280;50692;53.314;-6.300;2023-03-22T11:09:35;98747.31;;;16.00;46.14
64368;BME280;50692;53.314;-6.300;2023-03-22T11:12:19;98752.34;;;16.11;46.27
64368;BME280;50692;53.314;-6.300;2023-03-22T11:15:04;98778.97;;;16.11;46.49
64368;BME280;50692;53.314;-6.300;2023-03-22T11:17:49;98725.38;;;16.30;46.63
64368;BME280;50692;53.314;-6.300;2023-03-22T11:20:33;98735.34;;;16.86;46.04
64368;BME280;50692;53.314;-6.300;2023-03-22T11:23:19;98732.00;;;17.00;44.73
64368;BME280;50692;53.314;-6.300;2023-03-22T11:26:08;98732.19;;;16.58;45.81
64368;BME280;50692;53.314;-6.300;2023-03-22T11:29:00;98732.19;;;16.58;46.08
64368;BME280;50692;53.314;-6.300;2023-03-22T11:32:13;98717.06;;;16.42;46.30
64368;BME280;50692;53.314;-6.300;2023-03-22T11:35:20;98700.53;;;16.22;45.69
64368;BME280;50692;53.314;-6.300;2023-03-22T11:38:05;98709.22;;;16.16;45.98
64368;BME280;50692;53.314;-6.300;2023-03-22T11:40:57;98741.63;;;15.87;47.44
64368;BME280;50692;53.314;-6.300;2023-03-22T11:43:45;98732.34;;;14.80;57.70
64368;BME280;50692;53.314;-6.300;2023-03-22T11:46:32;98727.88;;;14.62;61.76
64368;BME280;50692;53.314;-6.300;2023-03-22T11:49:18;98719.81;;;14.98;58.58
64368;BME280;50692;53.314;-6.300;2023-03-22T11:52:14;98710.59;;;15.19;55.04
64368;BME280;50692;53.314;-6.300;2023-03-22T11:55:00;98707.50;;;15.40;52.83
64368;BME280;50692;53.314;-6.300;2023-03-22T11:57:44;98715.31;;;15.75;49.92
64368;BME280;50692;53.314;-6.300;2023-03-22T12:00:32;98682.22;;;16.02;50.44
64368;BME280;50692;53.314;-6.300;2023-03-22T12:03:20;98685.69;;;16.44;48.15
64368;BME280;50692;53.314;-6.300;2023-03-22T12:06:35;98664.81;;;16.72;47.64
64368;BME280;50692;53.314;-6.300;2023-03-22T12:09:37;98688.31;;;16.93;45.91
64368;BME280;50692;53.314;-6.300;2023-03-22T12:12:26;98677.75;;;17.08;45.85
64368;BME280;50692;53.314;-6.300;2023-03-22T12:15:16;98686.09;;;17.13;44.54
64368;BME280;50692;53.314;-6.300;2023-03-22T12:18:05;98663.25;;;17.10;44.86
64368;BME280;50692;53.314;-6.300;2023-03-22T12:20:56;98664.25;;;17.48;44.48
64368;BME280;50692;53.314;-6.300;2023-03-22T12:23:42;98667.75;;;17.49;42.08
64368;BME280;50692;53.314;-6.300;2023-03-22T12:26:29;98663.38;;;17.17;42.29
64368;BME280;50692;53.314;-6.300;2023-03-22T12:29:16;98668.09;;;17.69;41.67
64368;BME280;50692;53.314;-6.300;2023-03-22T12:32:11;98664.06;;;17.81;41.53
64368;BME280;50692;53.314;-6.300;2023-03-22T12:34:59;98657.69;;;18.28;40.95
64368;BME280;50692;53.314;-6.300;2023-03-22T12:37:45;98651.56;;;18.57;39.71
64368;BME280;50692;53.314;-6.300;2023-03-22T12:40:39;98635.94;;;18.99;39.38
64368;BME280;50692;53.314;-6.300;2023-03-22T12:43:53;98648.31;;;18.85;38.93
64368;BME280;50692;53.314;-6.300;2023-03-22T12:46:48;98638.53;;;18.77;39.36
64368;BME280;50692;53.314;-6.300;2023-03-22T12:52:44;98633.16;;;18.77;39.46
64368;BME280;50692;53.314;-6.300;2023-03-22T12:55:37;98644.59;;;18.71;38.55
64368;BME280;50692;53.314;-6.300;2023-03-22T12:58:22;98621.75;;;18.31;39.70
64368;BME280;50692;53.314;-6.300;2023-03-22T13:07:36;98608.22;;;18.09;39.24
64368;BME280;50692;53.314;-6.300;2023-03-22T13:18:59;98605.34;;;19.08;37.72
64368;BME280;50692;53.314;-6.300;2023-03-22T13:21:47;98608.22;;;19.06;38.16
64368;BME280;50692;53.314;-6.300;2023-03-22T13:24:31;98586.97;;;19.41;37.30
64368;BME280;50692;53.314;-6.300;2023-03-22T13:27:16;98567.16;;;19.35;37.48
64368;BME280;50692;53.314;-6.300;2023-03-22T13:30:00;98583.81;;;19.52;36.95
64368;BME280;50692;53.314;-6.300;2023-03-22T13:32:58;98573.88;;;19.10;37.17
64368;BME280;50692;53.314;-6.300;2023-03-22T13:36:22;98567.66;;;19.24;37.23
64368;BME280;50692;53.314;-6.300;2023-03-22T13:39:09;98575.00;;;19.01;37.13
64368;BME280;50692;53.314;-6.300;2023-03-22T13:42:19;98601.59;;;19.02;36.50
64368;BME280;50692;53.314;-6.300;2023-03-22T13:45:06;98591.91;;;18.86;36.73
64368;BME280;50692;53.314;-6.300;2023-03-22T13:48:11;98603.41;;;19.02;36.68
64368;BME280;50692;53.314;-6.300;2023-03-22T13:50:56;98572.94;;;18.58;37.07
64368;BME280;50692;53.314;-6.300;2023-03-22T13:53:52;98559.47;;;18.37;37.01
64368;BME280;50692;53.314;-6.300;2023-03-22T13:56:58;98548.06;;;18.73;37.46
64368;BME280;50692;53.314;-6.300;2023-03-22T13:59:59;98554.53;;;19.51;36.37
64368;BME280;50692;53.314;-6.300;2023-03-22T14:02:44;98548.34;;;19.50;36.84
64368;BME280;50692;53.314;-6.300;2023-03-22T14:05:33;98550.16;;;19.07;36.98
64368;BME280;50692;53.314;-6.300;2023-03-22T14:08:25;98533.75;;;18.21;38.02
64368;BME280;50692;53.314;-6.300;2023-03-22T14:14:16;98511.88;;;17.88;39.54
64368;BME280;50692;53.314;-6.300;2023-03-22T14:17:15;98498.41;;;17.58;39.32
64368;BME280;50692;53.314;-6.300;2023-03-22T14:20:01;98485.19;;;17.42;39.87
64368;BME280;50692;53.314;-6.300;2023-03-22T14:22:56;98533.34;;;17.71;39.72
64368;BME280;50692;53.314;-6.300;2023-03-22T14:25:44;98483.97;;;17.67;40.08
64368;BME280;50692;53.314;-6.300;2023-03-22T14:28:35;98490.94;;;17.77;40.22
64368;BME280;50692;53.314;-6.300;2023-03-22T14:31:27;98477.97;;;17.65;40.72
64368;BME280;50692;53.314;-6.300;2023-03-22T14:34:17;98460.25;;;17.49;40.89
64368;BME280;50692;53.314;-6.300;2023-03-22T14:37:04;98461.94;;;17.27;41.59
64368;BME280;50692;53.314;-6.300;2023-03-22T14:39:51;98461.34;;;17.17;40.78
64368;BME280;50692;53.314;-6.300;2023-03-22T14:42:37;98438.28;;;17.24;39.61
64368;BME280;50692;53.314;-6.300;2023-03-22T14:45:22;98433.13;;;17.23;39.56
64368;BME280;50692;53.314;-6.300;2023-03-22T14:48:16;98389.19;;;16.88;39.62
64368;BME280;50692;53.314;-6.300;2023-03-22T14:51:06;98451.16;;;17.21;39.90
64368;BME280;50692;53.314;-6.300;2023-03-22T14:53:52;98405.97;;;16.96;40.69
64368;BME280;50692;53.314;-6.300;2023-03-22T14:56:38;98418.84;;;16.93;41.92
64368;BME280;50692;53.314;-6.300;2023-03-22T14:59:23;98444.13;;;16.35;44.58
64368;BME280;50692;53.314;-6.300;2023-03-22T15:02:34;98409.63;;;15.94;47.95
64368;BME280;50692;53.314;-6.300;2023-03-22T15:05:26;98423.03;;;15.69;49.97
64368;BME280;50692;53.314;-6.300;2023-03-22T15:11:22;98408.56;;;14.66;56.22
64368;BME280;50692;53.314;-6.300;2023-03-22T15:14:08;98410.59;;;14.29;59.48
64368;BME280;50692;53.314;-6.300;2023-03-22T15:16:54;98392.81;;;13.87;59.83
64368;BME280;50692;53.314;-6.300;2023-03-22T15:19:49;98400.47;;;13.64;60.26
64368;BME280;50692;53.314;-6.300;2023-03-22T15:22:36;98390.53;;;13.66;61.19
64368;BME280;50692;53.314;-6.300;2023-03-22T15:25:29;98366.75;;;13.57;61.26
64368;BME280;50692;53.314;-6.300;2023-03-22T15:28:19;98376.84;;;13.79;61.28
64368;BME280;50692;53.314;-6.300;2023-03-22T15:31:04;98383.41;;;14.01;59.38
64368;BME280;50692;53.314;-6.300;2023-03-22T15:33:53;98369.44;;;13.99;59.08
64368;BME280;50692;53.314;-6.300;2023-03-22T15:36:37;98345.94;;;14.12;54.98
64368;BME280;50692;53.314;-6.300;2023-03-22T15:39:26;98380.91;;;14.50;53.60
64368;BME280;50692;53.314;-6.300;2023-03-22T15:42:20;98367.53;;;14.76;52.06
64368;BME280;50692;53.314;-6.300;2023-03-22T15:45:18;98332.75;;;14.86;50.90
64368;BME280;50692;53.314;-6.300;2023-03-22T15:50:56;98315.31;;;14.75;49.64
64368;BME280;50692;53.314;-6.300;2023-03-22T15:53:40;98312.16;;;14.72;50.38
64368;BME280;50692;53.314;-6.300;2023-03-22T15:56:33;98316.50;;;14.81;50.31